Aviation Digital Data Service (ADDS)

Output produced by METARs form (2219 UTC 17 October 2017)
found at http://aviationweather.gov/adds/metars/
 
KISP 172116Z 1721/1818 22005KT P6SM SKC 
     FM180300 VRB04KT P6SM SKC 
     FM181500 28006KT P6SM SKC